Time;durP1;ratioP1;P1;durP2;ratioP2;P2;SDS_P1;SDS_P2;PMS_P1;PMS_P2;Temp;Humidity;BMP_temperature;BMP_pressure;BME280_temperature;BME280_humidity;BME280_pressure;Samples;Min_cycle;Max_cycle;Signal;HPM_P1;HPM_P2
2023/09/26 00:00:14;;;;;;;373.70;296.85;;;;;;;22.59;66.32;99797.25;328392;30;934;-78
2023/09/26 00:00:24;;;;;;;369.55;288.02;;;;;;;22.57;66.12;99805.41;325702;30;1318;-78
2023/09/26 00:00:34;;;;;;;371.73;289.17;;;;;;;22.58;66.46;99793.75;326516;30;1466;-78
2023/09/26 00:00:49;;;;;;;372.77;292.30;;;;;;;22.60;66.36;99800.78;323538;30;1311;-78
2023/09/26 00:00:59;;;;;;;375.88;301.90;;;;;;;22.61;66.19;99797.97;324393;30;1885;-78
2023/09/26 00:01:09;;;;;;;374.97;294.63;;;;;;;22.62;66.25;99799.66;325696;30;1204;-78
2023/09/26 00:01:26;;;;;;;379.10;299.33;;;;;;;22.62;66.34;99799.66;324185;30;1350;-78
2023/09/26 00:01:37;;;;;;;372.50;295.65;;;;;;;22.64;66.27;99802.19;319750;30;964;-78
2023/09/26 00:01:47;;;;;;;374.13;291.10;;;;;;;22.65;65.87;99802.06;320454;30;2538;-78
2023/09/26 00:02:00;;;;;;;380.60;294.03;;;;;;;22.65;66.42;99801.22;317476;30;2195;-78
2023/09/26 00:02:10;;;;;;;382.77;298.45;;;;;;;22.63;66.27;99804.03;315181;31;1447;-78
2023/09/26 00:02:21;;;;;;;387.10;310.97;;;;;;;22.62;66.65;99802.34;315253;31;953;-78
2023/09/26 00:02:31;;;;;;;385.45;308.00;;;;;;;22.61;66.31;99808.66;316128;30;1924;-78
2023/09/26 00:02:42;;;;;;;388.10;305.07;;;;;;;22.62;66.19;99801.50;317034;31;1468;-78
2023/09/26 00:02:53;;;;;;;383.23;294.42;;;;;;;22.62;66.31;99794.31;316340;31;867;-78
2023/09/26 00:03:05;;;;;;;380.02;296.25;;;;;;;22.63;66.06;99801.34;314799;31;1250;-78
2023/09/26 00:03:15;;;;;;;377.67;299.35;;;;;;;22.65;66.14;99799.41;313637;31;1520;-78
2023/09/26 00:03:25;;;;;;;378.50;301.67;;;;;;;22.66;66.22;99802.91;312567;31;1203;-78
2023/09/26 00:03:36;;;;;;;380.02;304.33;;;;;;;22.65;66.05;99798.56;311822;31;1405;-78
2023/09/26 00:03:46;;;;;;;380.27;307.60;;;;;;;22.65;66.11;99799.41;310259;31;2232;-78
2023/09/26 00:03:57;;;;;;;380.73;315.10;;;;;;;22.66;66.22;99800.25;307975;31;3085;-78
2023/09/26 00:04:07;;;;;;;382.40;316.55;;;;;;;22.66;66.34;99806.44;308565;32;1419;-78
2023/09/26 00:04:18;;;;;;;383.50;308.60;;;;;;;22.65;66.15;99799.41;308146;31;2971;-78
2023/09/26 00:04:28;;;;;;;382.65;301.45;;;;;;;22.66;66.52;99806.44;307868;31;3386;-78
2023/09/26 00:04:38;;;;;;;383.57;297.80;;;;;;;22.65;66.24;99799.41;305423;32;1211;-78
2023/09/26 00:04:49;;;;;;;382.23;294.25;;;;;;;22.65;66.02;99799.41;306481;32;3361;-78
2023/09/26 00:04:59;;;;;;;383.10;297.70;;;;;;;22.65;66.33;99799.41;306538;31;2301;-78
2023/09/26 00:05:11;;;;;;;383.48;305.13;;;;;;;22.65;66.40;99799.41;304218;32;1385;-78
2023/09/26 00:05:23;;;;;;;385.05;311.23;;;;;;;22.64;66.23;99803.03;303436;32;1669;-78
2023/09/26 00:05:33;;;;;;;384.52;308.85;;;;;;;22.65;66.26;99810.06;304771;32;1842;-78
2023/09/26 00:05:44;;;;;;;383.08;306.25;;;;;;;22.65;66.32;99802.06;302328;32;2406;-78
2023/09/26 00:05:54;;;;;;;385.23;310.63;;;;;;;22.65;66.52;99804.72;297207;33;2812;-78
2023/09/26 00:06:09;;;;;;;387.42;314.95;;;;;;;22.64;66.08;99802.19;300045;32;3365;-78
2023/09/26 00:06:23;;;;;;;388.83;311.70;;;;;;;22.57;66.11;99796.56;298624;32;4351;-78
2023/09/26 00:06:33;;;;;;;389.60;306.55;;;;;;;22.58;66.08;99798.25;294757;33;4617;-78
2023/09/26 00:06:44;;;;;;;386.83;310.05;;;;;;;22.57;66.21;99799.22;293061;33;5433;-78
2023/09/26 00:06:57;;;;;;;391.40;315.42;;;;;;;22.58;66.28;99798.25;291996;33;863;-78
2023/09/26 00:07:08;;;;;;;390.83;312.17;;;;;;;22.61;66.43;99808.66;289256;34;1402;-78
2023/09/26 00:07:18;;;;;;;386.23;306.97;;;;;;;22.62;66.22;99799.66;285527;34;3219;-78
2023/09/26 00:07:29;;;;;;;386.27;304.95;;;;;;;22.63;66.05;99803.19;284921;34;2070;-78
2023/09/26 00:07:40;;;;;;;382.40;298.15;;;;;;;22.64;66.39;99807.53;287401;34;1255;-78
2023/09/26 00:07:54;;;;;;;379.98;299.30;;;;;;;22.64;66.53;99803.03;286460;34;2938;-78
2023/09/26 00:08:05;;;;;;;377.38;305.85;;;;;;;22.67;66.31;99800.09;287273;34;3862;-78
2023/09/26 00:08:16;;;;;;;375.85;310.05;;;;;;;22.68;66.16;99806.28;282781;34;4222;-78
2023/09/26 00:08:26;;;;;;;378.53;312.53;;;;;;;22.68;66.34;99804.47;279989;35;6671;-78
2023/09/26 00:08:37;;;;;;;381.95;319.20;;;;;;;22.69;66.10;99808.81;280062;35;1161;-78
2023/09/26 00:08:47;;;;;;;389.40;326.83;;;;;;;22.70;66.06;99802.50;274806;35;6327;-78
2023/09/26 00:08:58;;;;;;;387.25;325.48;;;;;;;22.70;65.68;99802.50;272719;35;6507;-78
2023/09/26 00:09:09;;;;;;;381.95;322.27;;;;;;;22.71;66.27;99806.88;277391;35;933;-78
2023/09/26 00:09:21;;;;;;;378.50;324.92;;;;;;;22.71;66.33;99803.34;273978;35;7181;-78
2023/09/26 00:09:31;;;;;;;383.25;323.58;;;;;;;22.70;66.25;99802.50;272829;35;5288;-78
2023/09/26 00:09:41;;;;;;;383.87;313.67;;;;;;;22.69;66.42;99798.16;270215;36;3858;-78
2023/09/26 00:09:52;;;;;;;381.30;304.70;;;;;;;22.68;66.75;99804.47;270432;36;1381;-78
2023/09/26 00:10:04;;;;;;;373.50;303.60;;;;;;;22.69;66.30;99806.16;269191;36;5919;-78
2023/09/26 00:11:56;;;;;;;367.45;298.87;;;;;;;22.65;66.60;99807.41;2501562;27;20494;-78
2023/09/26 00:12:08;;;;;;;370.50;299.20;;;;;;;22.65;66.57;99803.88;353087;28;904;-78
2023/09/26 00:12:18;;;;;;;372.55;294.38;;;;;;;22.63;66.56;99806.69;349379;28;1400;-78
2023/09/26 00:12:29;;;;;;;375.33;302.33;;;;;;;22.63;66.84;99805.84;345731;28;1030;-77
2023/09/26 00:12:39;;;;;;;376.27;304.33;;;;;;;22.61;66.88;99802.47;347428;28;820;-78
2023/09/26 00:12:50;;;;;;;375.23;300.70;;;;;;;22.62;66.86;99802.34;349889;28;1223;-78
2023/09/26 00:13:00;;;;;;;372.42;294.38;;;;;;;22.63;66.83;99808.50;349843;28;1215;-78
2023/09/26 00:13:11;;;;;;;373.17;298.47;;;;;;;22.62;66.81;99804.16;347499;28;998;-77
2023/09/26 00:13:21;;;;;;;371.80;298.38;;;;;;;22.62;66.58;99804.16;347583;28;1224;-77
2023/09/26 00:13:31;;;;;;;374.00;299.97;;;;;;;22.62;66.87;99802.34;349017;28;1247;-78
2023/09/26 00:13:43;;;;;;;374.10;301.60;;;;;;;22.61;66.93;99805.97;351691;28;1301;-78
2023/09/26 00:13:54;;;;;;;373.48;302.52;;;;;;;22.62;66.83;99802.34;351631;28;973;-78
2023/09/26 00:14:05;;;;;;;370.10;296.45;;;;;;;22.61;66.79;99803.31;347414;28;1441;-78
2023/09/26 00:14:16;;;;;;;368.65;293.90;;;;;;;22.60;66.62;99806.97;348709;28;1313;-78
2023/09/26 00:14:26;;;;;;;373.00;293.17;;;;;;;22.60;66.69;99806.97;347557;28;1291;-78
2023/09/26 00:14:37;;;;;;;372.70;289.98;;;;;;;22.59;66.75;99799.94;349116;28;1179;-78
2023/09/26 00:14:48;;;;;;;374.23;290.85;;;;;;;22.58;66.78;99804.44;348935;28;737;-78
2023/09/26 00:14:58;;;;;;;375.77;296.73;;;;;;;22.59;66.63;99807.94;348187;28;2900;-78
2023/09/26 00:15:11;;;;;;;379.15;300.15;;;;;;;22.60;66.93;99806.13;345036;28;5016;-78
2023/09/26 00:15:21;;;;;;;376.70;295.08;;;;;;;22.58;66.75;99815.09;348257;28;2732;-78
2023/09/26 00:15:33;;;;;;;377.40;297.10;;;;;;;22.59;66.93;99802.59;349059;28;882;-78
2023/09/26 00:15:44;;;;;;;370.50;292.02;;;;;;;22.59;66.85;99805.28;347559;28;1443;-78
2023/09/26 00:15:54;;;;;;;369.13;297.87;;;;;;;22.59;66.71;99805.28;352962;28;1344;-78
2023/09/26 00:16:06;;;;;;;365.93;292.60;;;;;;;22.59;66.73;99805.28;350196;28;1210;-78
2023/09/26 00:16:17;;;;;;;365.70;292.73;;;;;;;22.58;67.20;99812.44;349014;28;992;-78
2023/09/26 00:16:27;;;;;;;367.13;290.23;;;;;;;22.57;67.36;99808.06;348974;28;891;-78
2023/09/26 00:16:38;;;;;;;371.67;297.70;;;;;;;22.59;67.02;99810.59;347685;28;1283;-78
2023/09/26 00:16:48;;;;;;;371.47;297.60;;;;;;;22.56;67.25;99801.03;346146;28;2900;-78
2023/09/26 00:16:58;;;;;;;369.52;294.60;;;;;;;22.56;67.38;99810.88;343358;28;2849;-78
2023/09/26 00:17:09;;;;;;;367.37;293.50;;;;;;;22.55;67.57;99811.84;344543;28;1307;-78
2023/09/26 00:17:19;;;;;;;371.63;297.83;;;;;;;22.54;67.18;99808.34;345198;28;1481;-77
2023/09/26 00:17:30;;;;;;;372.27;300.57;;;;;;;22.53;67.36;99811.13;346191;28;1326;-78
2023/09/26 00:17:40;;;;;;;374.10;301.77;;;;;;;22.54;67.44;99807.50;347184;28;1673;-78
2023/09/26 00:17:50;;;;;;;371.05;298.52;;;;;;;22.53;67.01;99805.81;346211;28;1302;-78
2023/09/26 00:18:02;;;;;;;372.27;298.07;;;;;;;22.53;67.57;99811.97;343460;28;1232;-78
2023/09/26 00:18:12;;;;;;;371.45;302.20;;;;;;;22.53;67.51;99811.13;342133;28;1307;-78
2023/09/26 00:18:23;;;;;;;373.50;301.17;;;;;;;22.52;67.34;99812.16;343304;28;1398;-78
2023/09/26 00:18:33;;;;;;;374.42;302.17;;;;;;;22.50;67.45;99809.63;340788;28;1248;-78
2023/09/26 00:18:44;;;;;;;376.77;298.07;;;;;;;22.49;67.51;99809.75;341993;28;1382;-78
2023/09/26 00:18:54;;;;;;;377.27;305.33;;;;;;;22.49;67.23;99804.41;343249;28;831;-78
2023/09/26 00:19:04;;;;;;;374.58;305.10;;;;;;;22.49;67.28;99809.75;343448;28;1207;-78
2023/09/26 00:19:15;;;;;;;375.47;307.73;;;;;;;22.48;67.59;99805.38;339533;29;806;-78
2023/09/26 00:19:25;;;;;;;376.05;308.10;;;;;;;22.50;67.38;99811.44;339490;29;1386;-78
2023/09/26 00:19:36;;;;;;;377.23;308.10;;;;;;;22.49;67.56;99804.41;341806;28;1465;-78
2023/09/26 00:19:46;;;;;;;374.98;309.33;;;;;;;22.48;67.72;99808.91;340559;28;1499;-78
2023/09/26 00:19:57;;;;;;;376.60;310.47;;;;;;;22.49;67.83;99807.06;335526;29;1211;-78
2023/09/26 00:20:12;;;;;;;376.05;308.20;;;;;;;22.46;67.83;99804.69;340105;28;1558;-78
2023/09/26 00:20:30;;;;;;;376.10;310.33;;;;;;;22.44;68.24;99812.81;340277;28;1334;-78
2023/09/26 00:20:41;;;;;;;377.55;315.88;;;;;;;22.42;68.16;99811.25;336888;29;905;-78
2023/09/26 00:20:51;;;;;;;378.58;312.13;;;;;;;22.41;68.03;99812.22;339530;29;1384;-78
2023/09/26 00:21:01;;;;;;;377.87;308.53;;;;;;;22.38;68.07;99802.66;337972;29;1189;-78
2023/09/26 00:21:12;;;;;;;378.98;310.30;;;;;;;22.38;68.28;99807.16;338277;29;1521;-78
2023/09/26 00:21:22;;;;;;;381.20;313.30;;;;;;;22.36;68.54;99807.28;335432;29;1268;-78
2023/09/26 00:21:33;;;;;;;389.40;313.77;;;;;;;22.36;68.55;99806.44;334212;29;984;-78
2023/09/26 00:21:43;;;;;;;389.85;309.10;;;;;;;22.37;68.46;99808.13;334282;29;1368;-78
2023/09/26 00:21:53;;;;;;;395.67;309.60;;;;;;;22.36;68.48;99809.97;331387;29;1441;-78
2023/09/26 00:22:04;;;;;;;393.92;316.73;;;;;;;22.38;68.61;99812.50;331051;29;1979;-78
2023/09/26 00:22:15;;;;;;;393.77;315.58;;;;;;;22.39;68.63;99808.84;325604;30;1375;-78
2023/09/26 00:22:25;;;;;;;391.50;316.60;;;;;;;22.39;68.35;99806.19;331424;29;2063;-78
2023/09/26 00:22:36;;;;;;;392.47;318.87;;;;;;;22.40;68.34;99811.38;331350;29;2097;-78
2023/09/26 00:22:46;;;;;;;391.65;325.30;;;;;;;22.39;68.30;99806.19;329005;29;2283;-77
2023/09/26 00:22:57;;;;;;;391.27;322.17;;;;;;;22.38;68.45;99804.50;326709;30;1272;-77
2023/09/26 00:23:07;;;;;;;388.63;315.00;;;;;;;22.36;68.57;99809.97;328497;30;1843;-78
2023/09/26 00:23:18;;;;;;;389.42;317.27;;;;;;;22.37;68.81;99810.81;327605;30;1266;-78
2023/09/26 00:23:28;;;;;;;383.30;317.43;;;;;;;22.37;68.40;99810.81;329355;30;961;-78
2023/09/26 00:23:39;;;;;;;384.67;317.90;;;;;;;22.34;69.06;99806.59;331194;29;1329;-78
2023/09/26 00:23:49;;;;;;;387.00;315.67;;;;;;;22.32;68.51;99807.69;326520;30;1637;-77
2023/09/26 00:23:59;;;;;;;390.45;315.58;;;;;;;22.31;68.67;99808.66;325556;30;1357;-77
2023/09/26 00:24:10;;;;;;;395.47;320.93;;;;;;;22.32;68.80;99805.88;326360;30;2141;-77
2023/09/26 00:24:21;;;;;;;398.50;319.97;;;;;;;22.32;68.95;99810.34;325236;30;2893;-77
2023/09/26 00:24:31;;;;;;;396.52;321.52;;;;;;;22.31;68.64;99812.19;322919;30;4701;-77
2023/09/26 00:24:41;;;;;;;392.15;320.58;;;;;;;22.32;68.80;99813.03;320857;30;853;-77
2023/09/26 00:24:52;;;;;;;392.13;321.87;;;;;;;22.32;68.66;99805.88;319338;30;2231;-77
2023/09/26 00:25:04;;;;;;;391.38;321.95;;;;;;;22.31;68.64;99814.84;320240;30;3237;-77
2023/09/26 00:25:15;;;;;;;393.98;321.33;;;;;;;22.27;68.61;99809.91;322089;30;1385;-77
2023/09/26 00:25:25;;;;;;;389.30;319.40;;;;;;;22.26;68.93;99810.88;321841;30;1852;-77
2023/09/26 00:25:37;;;;;;;386.85;317.63;;;;;;;22.22;69.01;99808.47;322671;30;1586;-77
2023/09/26 00:25:48;;;;;;;386.25;317.83;;;;;;;22.23;69.29;99814.66;321295;30;1786;-77
2023/09/26 00:25:58;;;;;;;386.23;317.57;;;;;;;22.23;68.95;99810.16;323129;30;1197;-77
2023/09/26 00:26:09;;;;;;;392.02;322.40;;;;;;;22.20;68.92;99805.09;322550;30;2179;-78
2023/09/26 00:26:19;;;;;;;395.50;322.55;;;;;;;22.20;69.23;99810.44;318236;30;3121;-78
2023/09/26 00:26:30;;;;;;;401.03;330.77;;;;;;;22.19;69.33;99811.41;316291;31;1406;-78
2023/09/26 00:26:40;;;;;;;396.73;327.05;;;;;;;22.18;69.12;99814.19;310237;31;3198;-78
2023/09/26 00:26:51;;;;;;;397.60;323.80;;;;;;;22.17;69.04;99812.50;311139;31;3079;-78
2023/09/26 00:27:01;;;;;;;396.13;318.43;;;;;;;22.15;69.25;99812.66;312348;31;2842;-78
2023/09/26 00:27:11;;;;;;;396.27;320.67;;;;;;;22.14;69.55;99813.63;311734;31;1264;-78
2023/09/26 00:27:22;;;;;;;397.37;323.50;;;;;;;22.15;69.40;99811.78;312889;31;2876;-77
2023/09/26 00:27:35;;;;;;;396.63;321.08;;;;;;;22.14;69.12;99818.94;310531;31;2528;-77
2023/09/26 00:27:45;;;;;;;389.95;313.13;;;;;;;22.15;69.29;99817.97;305747;32;1867;-77
2023/09/26 00:27:56;;;;;;;391.37;316.00;;;;;;;22.14;69.46;99818.94;304260;32;1022;-78
2023/09/26 00:28:07;;;;;;;398.58;323.25;;;;;;;22.15;68.93;99811.78;302893;32;2773;-79
2023/09/26 00:28:17;;;;;;;396.40;321.23;;;;;;;22.14;68.95;99816.28;301146;32;3289;-78
2023/09/26 00:28:28;;;;;;;394.77;319.50;;;;;;;22.13;69.48;99817.25;301624;32;1593;-79
2023/09/26 00:28:38;;;;;;;391.08;320.65;;;;;;;22.13;69.46;99814.59;300729;32;4186;-78
2023/09/26 00:28:48;;;;;;;391.43;326.53;;;;;;;22.14;69.19;99818.09;300277;32;4904;-77
2023/09/26 00:28:59;;;;;;;390.93;323.40;;;;;;;22.13;69.49;99819.94;299047;33;1382;-77
2023/09/26 00:29:09;;;;;;;385.02;320.48;;;;;;;22.13;69.21;99819.09;296862;32;4385;-77
2023/09/26 00:29:19;;;;;;;380.33;314.70;;;;;;;22.13;69.49;99816.41;297047;33;3881;-77
2023/09/26 00:29:31;;;;;;;379.17;313.88;;;;;;;22.13;69.51;99814.59;297917;33;882;-77
2023/09/26 00:29:42;;;;;;;377.55;310.45;;;;;;;22.14;69.29;99820.78;291125;34;978;-77
2023/09/26 00:29:52;;;;;;;381.80;308.17;;;;;;;22.14;69.38;99816.28;287499;34;3486;-77
2023/09/26 00:30:02;;;;;;;385.63;316.53;;;;;;;22.13;69.73;99814.59;284150;34;2934;-77
2023/09/26 00:30:14;;;;;;;389.42;322.23;;;;;;;22.14;69.14;99815.44;284198;34;1579;-78
2023/09/26 00:30:26;;;;;;;385.15;325.00;;;;;;;22.16;69.10;99818.81;284853;34;4196;-78
2023/09/26 00:30:37;;;;;;;383.63;323.88;;;;;;;22.15;69.15;99814.47;284889;34;4776;-78
2023/09/26 00:30:47;;;;;;;385.08;321.23;;;;;;;22.14;69.31;99812.78;282645;34;6735;-78
2023/09/26 00:31:03;;;;;;;389.48;326.33;;;;;;;22.14;69.04;99816.28;284597;34;911;-78
2023/09/26 00:31:13;;;;;;;387.10;321.42;;;;;;;22.16;69.32;99814.34;282696;35;1354;-78
2023/09/26 00:31:24;;;;;;;382.05;314.73;;;;;;;22.16;69.17;99811.66;278966;35;7609;-78
2023/09/26 00:31:34;;;;;;;376.80;310.67;;;;;;;22.15;69.31;99811.78;279972;34;6403;-78
2023/09/26 00:31:45;;;;;;;379.25;317.33;;;;;;;22.14;69.18;99816.28;281775;35;1351;-78
2023/09/26 00:31:55;;;;;;;384.23;319.20;;;;;;;22.13;69.35;99819.09;281354;35;5572;-78
2023/09/26 00:32:05;;;;;;;380.65;313.05;;;;;;;22.13;69.28;99819.94;279160;35;5325;-78
2023/09/26 00:32:16;;;;;;;378.33;309.27;;;;;;;22.12;69.50;99818.25;277539;35;4645;-78
2023/09/26 00:32:26;;;;;;;378.73;313.67;;;;;;;22.12;69.48;99818.25;280945;35;854;-78
2023/09/26 00:32:38;;;;;;;386.65;320.80;;;;;;;22.13;69.40;99813.75;273922;35;6351;-78
2023/09/26 00:32:49;;;;;;;391.88;321.30;;;;;;;22.15;69.38;99817.13;270521;35;7685;-78
2023/09/26 00:34:38;;;;;;;363.21;285.11;;;;;;;22.14;69.56;99816.28;2485641;27;20994;-78
2023/09/26 00:34:49;;;;;;;372.60;302.07;;;;;;;22.13;69.42;99813.75;351597;28;1219;-78
2023/09/26 00:35:01;;;;;;;372.30;307.40;;;;;;;22.13;69.68;99814.59;350605;28;785;-78
2023/09/26 00:35:12;;;;;;;377.08;313.38;;;;;;;22.13;69.32;99814.59;351561;28;1567;-78
2023/09/26 00:35:22;;;;;;;380.02;312.95;;;;;;;22.12;69.25;99807.56;348907;28;1310;-78
2023/09/26 00:35:32;;;;;;;380.30;310.90;;;;;;;22.10;69.47;99812.19;350226;28;1247;-78
2023/09/26 00:35:43;;;;;;;377.10;309.73;;;;;;;22.09;69.35;99813.19;349218;28;1338;-78
2023/09/26 00:35:53;;;;;;;378.58;312.50;;;;;;;22.10;69.48;99817.53;347365;28;904;-78
2023/09/26 00:36:07;;;;;;;374.87;312.37;;;;;;;22.11;69.19;99816.53;347462;28;1285;-78
2023/09/26 00:36:17;;;;;;;377.88;317.02;;;;;;;22.09;69.13;99818.53;346876;28;892;-78
2023/09/26 00:36:28;;;;;;;376.33;310.70;;;;;;;22.10;69.77;99819.34;346113;28;1338;-78
2023/09/26 00:36:38;;;;;;;376.77;313.20;;;;;;;22.09;69.07;99813.19;350317;28;846;-78
2023/09/26 00:36:49;;;;;;;377.58;317.00;;;;;;;22.10;69.62;99816.69;347745;28;1291;-78
2023/09/26 00:36:59;;;;;;;380.00;322.87;;;;;;;22.07;69.26;99809.81;347494;28;1180;-78
2023/09/26 00:37:10;;;;;;;379.17;322.00;;;;;;;22.08;69.73;99822.16;346846;28;1216;-78
2023/09/26 00:37:20;;;;;;;377.67;315.50;;;;;;;22.05;69.44;99811.75;345399;28;1075;-78
2023/09/26 00:37:31;;;;;;;377.77;316.33;;;;;;;22.06;69.69;99812.63;347494;28;1212;-78
2023/09/26 00:37:42;;;;;;;377.10;310.75;;;;;;;22.05;69.54;99810.91;347488;28;1348;-78
2023/09/26 00:37:52;;;;;;;379.58;312.70;;;;;;;22.03;69.54;99812.88;345927;28;1441;-78
2023/09/26 00:38:03;;;;;;;380.30;308.83;;;;;;;22.00;69.70;99813.94;346444;28;843;-78
2023/09/26 00:38:13;;;;;;;383.87;310.13;;;;;;;22.01;69.82;99818.34;348798;28;1496;-78
2023/09/26 00:38:24;;;;;;;381.10;300.67;;;;;;;22.01;70.02;99810.34;347436;28;1258;-78
2023/09/26 00:38:35;;;;;;;380.57;298.40;;;;;;;22.00;69.42;99807.75;347934;28;1176;-78
2023/09/26 00:38:46;;;;;;;376.48;294.20;;;;;;;22.00;70.12;99813.94;348820;28;933;-78
2023/09/26 00:38:56;;;;;;;378.33;294.47;;;;;;;22.01;70.03;99810.34;347500;28;1359;-78
2023/09/26 00:39:07;;;;;;;382.67;299.03;;;;;;;21.99;69.99;99812.25;350608;28;964;-78
2023/09/26 00:39:17;;;;;;;385.73;302.42;;;;;;;22.00;70.17;99813.09;347406;28;1370;-78
2023/09/26 00:39:28;;;;;;;386.10;301.30;;;;;;;21.98;69.59;99805.22;345202;28;856;-78
2023/09/26 00:39:38;;;;;;;380.67;296.52;;;;;;;22.00;69.95;99813.94;344827;28;1324;-78
2023/09/26 00:39:49;;;;;;;378.23;294.00;;;;;;;22.00;69.93;99813.09;344854;28;1121;-78
2023/09/26 00:39:59;;;;;;;378.13;294.87;;;;;;;22.01;69.74;99815.66;342057;28;1043;-78
2023/09/26 00:40:11;;;;;;;379.35;294.92;;;;;;;22.01;69.85;99810.34;340813;29;782;-78
2023/09/26 00:40:21;;;;;;;377.52;292.90;;;;;;;22.00;70.10;99808.63;347935;28;1102;-78
2023/09/26 00:40:32;;;;;;;376.75;292.40;;;;;;;22.00;69.67;99813.94;346132;28;1070;-78
2023/09/26 00:40:42;;;;;;;376.13;295.63;;;;;;;21.99;69.79;99812.25;340799;28;1187;-78
2023/09/26 00:40:53;;;;;;;377.60;302.95;;;;;;;21.98;69.96;99815.91;339482;29;1250;-78
2023/09/26 00:41:03;;;;;;;375.90;303.37;;;;;;;21.98;70.14;99813.22;337995;29;1344;-78
2023/09/26 00:41:14;;;;;;;375.83;303.33;;;;;;;21.98;69.90;99807.91;339471;28;1239;-78
2023/09/26 00:41:24;;;;;;;380.27;305.57;;;;;;;21.97;70.16;99816.88;340561;29;1198;-78
2023/09/26 00:41:34;;;;;;;381.25;305.45;;;;;;;21.98;69.81;99810.56;341976;28;1241;-78
2023/09/26 00:41:45;;;;;;;378.47;295.47;;;;;;;22.00;70.31;99808.63;340658;29;1372;-78
2023/09/26 00:41:55;;;;;;;376.27;293.80;;;;;;;22.00;70.02;99807.75;339311;29;1421;-78
2023/09/26 00:42:06;;;;;;;376.65;292.17;;;;;;;22.01;69.97;99810.34;339608;29;1207;-78
2023/09/26 00:42:16;;;;;;;376.53;299.30;;;;;;;22.01;69.66;99809.47;339809;29;1349;-78
2023/09/26 00:42:26;;;;;;;374.83;294.80;;;;;;;22.01;70.11;99809.47;339380;29;1195;-78
2023/09/26 00:42:38;;;;;;;375.27;293.87;;;;;;;21.99;70.09;99808.75;338110;29;1289;-78
2023/09/26 00:42:48;;;;;;;375.60;288.60;;;;;;;22.00;69.87;99813.94;338119;28;1203;-78
2023/09/26 00:43:02;;;;;;;375.57;289.97;;;;;;;21.99;69.94;99814.91;336387;29;1352;-78
2023/09/26 00:43:22;;;;;;;372.08;286.55;;;;;;;21.97;70.40;99814.19;334334;29;3041;-78
2023/09/26 00:43:32;;;;;;;363.25;287.83;;;;;;;21.96;70.16;99812.50;336492;29;3407;-78
2023/09/26 00:43:43;;;;;;;369.17;297.23;;;;;;;21.97;70.38;99808.88;334180;29;1349;-78
2023/09/26 00:43:53;;;;;;;372.08;296.38;;;;;;;21.96;70.08;99812.50;335246;29;3114;-78
2023/09/26 00:44:04;;;;;;;375.53;291.93;;;;;;;21.95;70.30;99810.81;336234;29;1206;-78
2023/09/26 00:44:14;;;;;;;371.58;287.67;;;;;;;21.95;70.13;99805.50;336781;29;1587;-78
2023/09/26 00:44:25;;;;;;;370.40;285.70;;;;;;;21.96;70.42;99815.19;332814;29;1190;-78
2023/09/26 00:44:35;;;;;;;366.48;281.95;;;;;;;21.96;70.03;99812.50;328295;29;1896;-78
2023/09/26 00:44:46;;;;;;;366.53;278.03;;;;;;;21.97;70.19;99808.03;328141;29;1447;-78
2023/09/26 00:44:56;;;;;;;367.27;280.08;;;;;;;21.97;70.16;99814.19;334023;29;1429;-78
2023/09/26 00:45:07;;;;;;;372.50;289.30;;;;;;;21.97;70.12;99810.69;330873;29;1712;-78
2023/09/26 00:45:17;;;;;;;371.98;294.63;;;;;;;21.97;70.04;99813.34;329021;29;2111;-78
2023/09/26 00:45:28;;;;;;;371.40;294.75;;;;;;;21.98;70.08;99810.56;327684;30;2179;-78
2023/09/26 00:45:38;;;;;;;369.33;288.77;;;;;;;21.99;70.09;99811.41;326562;30;1284;-78
2023/09/26 00:45:51;;;;;;;370.40;284.33;;;;;;;21.98;70.20;99815.91;328734;29;1633;-78
2023/09/26 00:46:03;;;;;;;370.40;283.83;;;;;;;21.96;70.29;99809.84;327083;30;966;-78
2023/09/26 00:46:14;;;;;;;367.35;282.67;;;;;;;21.96;70.36;99809.84;329116;29;1568;-78
2023/09/26 00:46:24;;;;;;;367.23;284.53;;;;;;;21.97;70.13;99810.69;329210;30;1090;-78
2023/09/26 00:46:35;;;;;;;368.20;283.13;;;;;;;21.97;70.66;99819.53;325583;30;2107;-78
2023/09/26 00:46:45;;;;;;;371.87;283.83;;;;;;;21.97;70.63;99810.69;323273;29;2677;-78
2023/09/26 00:46:58;;;;;;;373.80;275.45;;;;;;;21.97;70.28;99806.22;323132;30;1236;-78
2023/09/26 00:47:09;;;;;;;373.35;276.77;;;;;;;21.95;70.21;99812.63;317431;31;1102;-77
2023/09/26 00:47:19;;;;;;;375.20;283.27;;;;;;;21.94;70.26;99819.78;319939;30;2405;-77
2023/09/26 00:47:34;;;;;;;373.77;289.93;;;;;;;21.95;70.40;99810.81;320183;30;2370;-77
2023/09/26 00:47:45;;;;;;;369.55;283.48;;;;;;;21.95;70.44;99817.97;313032;31;2598;-77
2023/09/26 00:47:55;;;;;;;368.57;279.67;;;;;;;21.94;70.44;99809.13;311549;31;1415;-78
2023/09/26 00:48:06;;;;;;;365.77;273.00;;;;;;;21.95;70.52;99809.97;313540;31;1955;-78
2023/09/26 00:48:16;;;;;;;363.80;272.52;;;;;;;21.94;70.30;99814.47;311917;31;1850;-78
2023/09/26 00:48:27;;;;;;;362.17;270.27;;;;;;;21.92;70.82;99816.41;314630;31;1372;-78
2023/09/26 00:48:38;;;;;;;372.17;269.97;;;;;;;21.91;70.89;99814.72;320579;30;2224;-78
2023/09/26 00:48:49;;;;;;;381.10;276.55;;;;;;;21.90;70.60;99818.34;313268;31;2744;-78
2023/09/26 00:49:00;;;;;;;378.33;277.37;;;;;;;21.90;70.81;99813.88;310876;30;3376;-78
2023/09/26 00:49:11;;;;;;;379.20;284.08;;;;;;;21.88;70.92;99812.31;312762;31;1404;-78
2023/09/26 00:49:21;;;;;;;379.57;285.27;;;;;;;21.89;70.36;99808.66;315131;31;4092;-78
2023/09/26 00:49:31;;;;;;;379.92;285.20;;;;;;;21.89;70.40;99811.34;312149;31;4520;-77
2023/09/26 00:49:42;;;;;;;379.73;284.63;;;;;;;21.89;70.64;99812.19;309604;31;788;-77
2023/09/26 00:49:52;;;;;;;375.83;284.65;;;;;;;21.89;70.77;99806.84;310223;31;3313;-77
2023/09/26 00:50:03;;;;;;;373.10;288.80;;;;;;;21.89;70.88;99811.34;311722;31;3350;-77
2023/09/26 00:50:14;;;;;;;371.70;291.70;;;;;;;21.90;70.78;99815.69;310313;31;2421;-77
2023/09/26 00:50:24;;;;;;;372.27;292.67;;;;;;;21.90;70.65;99818.34;308505;32;1226;-77
2023/09/26 00:50:35;;;;;;;370.70;290.73;;;;;;;21.91;70.50;99814.72;304838;32;2176;-77
2023/09/26 00:50:46;;;;;;;369.30;289.42;;;;;;;21.90;70.84;99813.03;306340;31;2886;-77
2023/09/26 00:50:56;;;;;;;368.52;285.98;;;;;;;21.90;70.73;99815.69;307276;32;1334;-77
2023/09/26 00:51:07;;;;;;;369.37;283.27;;;;;;;21.90;70.55;99813.03;306202;32;3853;-77
2023/09/26 00:51:17;;;;;;;371.88;282.00;;;;;;;21.89;70.91;99814.84;303148;32;5263;-78
2023/09/26 00:51:28;;;;;;;374.93;286.97;;;;;;;21.89;70.68;99816.66;300992;32;5829;-78
2023/09/26 00:51:38;;;;;;;380.52;297.85;;;;;;;21.88;70.99;99809.66;297971;33;1378;-78
2023/09/26 00:51:49;;;;;;;379.43;301.20;;;;;;;21.88;70.71;99809.66;296368;33;5181;-78
2023/09/26 00:51:59;;;;;;;376.20;294.67;;;;;;;21.87;70.90;99807.97;296351;32;4099;-78
2023/09/26 00:52:10;;;;;;;370.75;285.45;;;;;;;21.86;70.71;99817.78;301141;32;975;-78
2023/09/26 00:52:20;;;;;;;371.47;282.13;;;;;;;21.86;70.68;99808.94;298305;33;4318;-78
2023/09/26 00:52:31;;;;;;;370.33;279.53;;;;;;;21.84;71.13;99813.53;296149;33;3407;-78
2023/09/26 00:52:43;;;;;;;369.90;274.95;;;;;;;21.84;71.14;99810.88;291422;33;2500;-78
2023/09/26 00:52:54;;;;;;;368.92;275.48;;;;;;;21.82;71.27;99812.81;290774;34;2908;-77
2023/09/26 00:53:04;;;;;;;370.57;280.97;;;;;;;21.81;71.04;99805.81;290247;33;4554;-77
2023/09/26 00:53:15;;;;;;;373.13;282.90;;;;;;;21.82;70.84;99812.81;289995;33;5797;-77
2023/09/26 00:53:26;;;;;;;373.30;280.80;;;;;;;21.82;71.03;99812.81;290053;34;1335;-77
2023/09/26 00:53:39;;;;;;;371.60;274.73;;;;;;;21.83;70.72;99809.19;286137;34;6796;-77